Redan, GA (30074)

03:36 PM EDT on august 22, 2014 (GMT -0400)
Havenridge | Change Station
CLOSE
Current Station
Staţie meteo personală
Location: Conyers, GA
Elevation: 879 ft
Nearby Weather Stations

Elev 879 ft 33.67 °N, 84.08 °W | Updated 5 minutes ago

Partly Cloudy
Cer parţial noros
94.8 °F
Feels Like 103 °F
N
2.7
Vânt variabil Vânt from SV

astăzi
High -- | Low -- °F
--% Chance of Precip.
Ieri
High -- | Low -- °F
Precip. -- inch
7:03 AM 8:14 PM
Semilună în descreştere, 7% visible
Presiunea 30.02 inch
Vizibilitatea 9.0 mile
Nori Few 4900 ft
Indicele de căldură 103 °F
Punctul de rouă 71 °F
Umiditatea 47%
Precipitaţii 0.00 inch
Adâncimea zăpezii Not available.
UV 10 out of 12
Pollen 9.00 out of 12
Ozon Bună
PM2.5 Moderată
Flu Activity Not available.
METAR KPDK 221853Z 34008KT 310V020 9SM FEW049 33/21 A3008 RMK AO2 SLP164 T03280206

More Conditions Fewer Conditions

Presiunea 30.02 inch
Vizibilitatea 9.0 mile
Nori Few 4900 ft
Indicele de căldură 103 °F
Punctul de rouă 71 °F
Umiditatea 47%
Precipitaţii 0.00 inch
Adâncimea zăpezii Not available.
UV 10 out of 12
Pollen 9.00 out of 12
Ozon Bună
PM2.5 Moderată
Flu Activity Not available.
METAR KPDK 221853Z 34008KT 310V020 9SM FEW049 33/21 A3008 RMK AO2 SLP164 T03280206

More Conditions Fewer Conditions

10-Day Weather Forecast

Almanac

Astronomie

Aug. 22, 2014 Răsărit Apus
Timpul Actual 7:03 AM EDT 8:14 PM EDT
Crepusculul Civil 6:37 AM EDT 8:40 PM EDT
Crepusculul nautic 6:06 AM EDT 9:11 PM EDT
Răsărit Astronomic 5:34 AM EDT 9:43 PM EDT
Luna 4:28 AM EDT 6:20 PM EDT
Durata zilei lumină 14h 03m
Lungimea zilei
13h 11m
Tomorrow will be 1m 55s shorter.
Semilună în descreştere, 7% of the Moon is Illuminated
astăzi
Semilună în descreştere
Aug 25
New
Sep 2
Primul pătrar
Sep 8
Lună plină
Sep 15
Ultimul pătrar

Extremele de azi

State Highs State Lows

Community

WunderPhotos

Upload Photos

1,746,226 photos uploaded!

Nearby

Calitatea aerului

  Calitatea aerului Index de calitate a aerului Poluat
Ieri Bună
PM10
Ieri Bună
OZONE
actual Moderată
PM2.5
actual Bună
OZONE
vineri Moderată
OZONE
vineri Moderată
PM2.5
sâmbătă Moderată
OZONE
sâmbătă Moderată
PM2.5

Adâncimea zapezii

Station Depth Elevation
No new snow has been reported.

Earthquake Activity

Oraş Distance Mag. Time & Date
No recent earthquake activity has been reported nearby.
Minimum magnitude displayed is 2.5.

Coastal Water Temperatures

Locul Temperatura
No Stations Reporting

Nearby Weather Stations